Marco Polo — C6JZ7 — position and weather

sailwx.info

Track history (hours):
 
Tides and Currents Weather Stations Pressure Air Temp Water Temp Dewpoint Dewpoint Depression Visibility Wind Speed Wind Dir Waves Ship Positions

Marco Polo

Operator: Orient Lines

Last reported at 2018-Oct-22 19:43 UTC. Time now 2018-Oct-22 22:36 UTC.
Position N 52°24' E 003°14'.

Type: Ship. MMSI: 308691456.

Date/timePositionNaut miles runAvg speedWind from/ knotsBaromVisibWave heightAir tempDewpointWater temp
2018-Oct-22 19:43N 52°24' E 003°14'414.4
2018-Oct-22 19:26N 52°27' E 003°18'614.4
2018-Oct-22 19:00N 52°32' E 003°24'1114.1
2018-Oct-22 18:13N 52°41' E 003°35'2313.4
2018-Oct-22 16:30N 52°58' E 004°01'1112.8
2018-Oct-22 15:39N 53°06' E 004°14'212.7
2018-Oct-22 15:30N 53°07' E 004°16'612.3
2018-Oct-22 15:03N 53°11' E 004°23'112.6
2018-Oct-22 15:00N 53°11' E 004°23'1312.8
2018-Oct-22 14:00N 53°23' E 004°32'713.0
2018-Oct-22 13:25N 53°29' E 004°40'1113.7
2018-Oct-22 12:36N 53°34' E 004°57'213.8
2018-Oct-22 12:29N 53°34' E 004°60'614.0
2018-Oct-22 12:04N 53°36' E 005°09'114.0
2018-Oct-22 11:59N 53°37' E 005°11'1214.0
2018-Oct-22 11:08N 53°41' E 005°30'5512.9
2018-Oct-22 06:51N 53°55' E 007°00'1712.2
2018-Oct-22 05:27N 53°59' E 007°28'512.7
2018-Oct-22 05:03N 54°01' E 007°37'112.6
2018-Oct-22 05:00N 54°01' E 007°38'612.6
2018-Oct-22 04:30N 54°01' E 007°48'613.1
2018-Oct-22 04:03N 54°01' E 007°58'113.3
2018-Oct-22 04:00N 54°01' E 007°60'713.5
2018-Oct-22 03:30N 54°00' E 008°11'612.7
2018-Oct-22 03:03N 53°60' E 008°20'115.5
2018-Oct-22 03:00N 53°59' E 008°22'816.0
2018-Oct-22 02:30N 53°58' E 008°35'715.3
2018-Oct-22 02:03N 53°53' E 008°43'113.0
2018-Oct-22 02:00N 53°52' E 008°44'713.2
2018-Oct-22 01:30N 53°51' E 008°54'614.3
2018-Oct-22 01:03N 53°53' E 009°05'114.2
2018-Oct-22 01:01N 53°53' E 009°06'2 3.6
2018-Oct-22 00:30N 53°54' E 009°09'0 0.0
2018-Oct-22 00:03N 53°54' E 009°09'0 0.1
2018-Oct-22 00:00N 53°54' E 009°09'1 2.9
2018-Oct-21 23:30N 53°55' E 009°10'0 0.1
2018-Oct-21 23:03N 53°55' E 009°10'0 0.2
2018-Oct-21 23:00N 53°55' E 009°10'1 2.2
2018-Oct-21 22:30N 53°55' E 009°12'3 6.0
2018-Oct-21 22:03N 53°57' E 009°15'0 5.8
2018-Oct-21 22:00N 53°58' E 009°15'3 5.8
2018-Oct-21 21:30N 54°00' E 009°18'7 6.4
2018-Oct-21 20:30N 54°06' E 009°20'3 5.7
2018-Oct-21 20:03N 54°09' E 009°21'0 6.5
2018-Oct-21 20:00N 54°09' E 009°22'4 7.3
2018-Oct-21 19:30N 54°11' E 009°27'3 6.0
2018-Oct-21 19:03N 54°12' E 009°32'0 6.0
2018-Oct-21 19:00N 54°12' E 009°32'3 6.2
2018-Oct-21 18:30N 54°14' E 009°36'3 5.6
2018-Oct-21 18:03N 54°16' E 009°38'0 4.0
2018-Oct-21 18:00N 54°16' E 009°38'4 7.1
2018-Oct-21 17:30N 54°18' E 009°43'4 8.3
2018-Oct-21 17:03N 54°21' E 009°47'0 8.0
2018-Oct-21 17:00N 54°22' E 009°47'4 7.9
2018-Oct-21 16:30N 54°21' E 009°54'3 7.3
2018-Oct-21 16:03N 54°21' E 009°59'0 7.2
2018-Oct-21 16:00N 54°21' E 009°60'2 4.3
2018-Oct-21 15:30N 54°22' E 010°03'0 0.1
2018-Oct-21 15:03N 54°22' E 010°04'0 1.9
2018-Oct-21 15:00N 54°22' E 010°04'3 2.9
2018-Oct-21 14:03N 54°22' E 010°08'1 1.7
2018-Oct-21 13:30N 54°22' E 010°10'1 1.1
2018-Oct-21 13:03N 54°22' E 010°11'0 1.4
2018-Oct-21 13:00N 54°22' E 010°11'3 6.6
2018-Oct-21 12:30N 54°25' E 010°13'511.2
2018-Oct-21 12:03N 54°30' E 010°17'0 8.5
2018-Oct-21 12:00N 54°30' E 010°18'510.9
2018-Oct-21 11:30N 54°32' E 010°26'613.7
2018-Oct-21 11:03N 54°35' E 010°36'113.9
2018-Oct-21 11:00N 54°35' E 010°38'713.9
2018-Oct-21 10:31N 54°36' E 010°49'613.8
2018-Oct-21 10:03N 54°36' E 010°60'114.5
2018-Oct-21 10:01N 54°36' E 011°01'713.8
2018-Oct-21 09:30N 54°35' E 011°13'715.1
2018-Oct-21 09:03N 54°32' E 011°24'115.2
2018-Oct-21 09:00N 54°32' E 011°25'714.8
2018-Oct-21 08:30N 54°29' E 011°36'714.4
2018-Oct-21 08:00N 54°26' E 011°48'714.6
2018-Oct-21 07:30N 54°26' E 012°00'613.8
2018-Oct-21 07:03N 54°27' E 012°11'114.8
2018-Oct-21 07:00N 54°28' E 012°12'714.5
2018-Oct-21 06:30N 54°35' E 012°14'614.3
2018-Oct-21 06:03N 54°39' E 012°22'114.8
2018-Oct-21 05:58N 54°40' E 012°23'714.9
2018-Oct-21 05:28N 54°44' E 012°34'714.5
2018-Oct-21 05:00N 54°47' E 012°45'7615.6
2018-Oct-21 00:07N 54°41' E 014°56'216.6
2018-Oct-20 23:59N 54°41' E 014°60'816.5
2018-Oct-20 23:29N 54°42' E 015°14'9916.3
2018-Oct-20 17:23N 54°57' E 018°04'516.0
2018-Oct-20 17:03N 54°58' E 018°13'115.8
2018-Oct-20 17:00N 54°58' E 018°15'816.1
2018-Oct-20 16:30N 54°58' E 018°29'715.7
2018-Oct-20 16:03N 54°56' E 018°40'116.5
2018-Oct-20 16:00N 54°55' E 018°41'816.8
2018-Oct-20 15:30N 54°50' E 018°52'715.5
2018-Oct-20 15:03N 54°44' E 018°59'116.6
2018-Oct-20 15:00N 54°43' E 018°58'1516.0
2018-Oct-20 14:03N 54°30' E 018°46'610.8
2018-Oct-20 13:31N 54°25' E 018°39'1 1.9
2018-Oct-20 13:02N 54°24' E 018°40'0 0.1
2018-Oct-20 12:59N 54°24' E 018°40'0 0.0
2018-Oct-20 12:29N 54°24' E 018°40'0 0.0
2018-Oct-20 12:02N 54°24' E 018°40'0 0.1
2018-Oct-20 11:59N 54°24' E 018°40'0 0.0
2018-Oct-20 11:29N 54°24' E 018°40'0 0.0
2018-Oct-20 11:02N 54°24' E 018°40'0 0.0
2018-Oct-20 10:59N 54°24' E 018°40'0 0.0
2018-Oct-20 10:29N 54°24' E 018°40'0 0.0
2018-Oct-20 10:02N 54°24' E 018°40'0 0.0
2018-Oct-20 09:59N 54°24' E 018°40'0 0.0
2018-Oct-20 09:29N 54°24' E 018°40'0 0.0
2018-Oct-20 09:02N 54°24' E 018°40'0 0.1
2018-Oct-20 08:59N 54°24' E 018°40'0 0.0
2018-Oct-20 08:26N 54°24' E 018°40'0 0.0
2018-Oct-20 08:02N 54°24' E 018°40'0 0.0
2018-Oct-20 07:59N 54°24' E 018°40'0 0.0
2018-Oct-20 07:29N 54°24' E 018°40'0 0.0
2018-Oct-20 07:02N 54°24' E 018°40'0 0.1
2018-Oct-20 06:59N 54°24' E 018°40'0 0.0
2018-Oct-20 06:29N 54°24' E 018°40'0 0.0
2018-Oct-20 06:02N 54°24' E 018°40'0 0.1
2018-Oct-20 05:59N 54°24' E 018°40'0 0.0
2018-Oct-20 05:26N 54°24' E 018°40'0 0.0
2018-Oct-20 05:02N 54°24' E 018°40'0 0.1
2018-Oct-20 04:59N 54°24' E 018°40'0 0.0
2018-Oct-20 04:29N 54°24' E 018°40'0 0.0
2018-Oct-20 04:03N 54°24' E 018°40'0 0.1
2018-Oct-20 04:00N 54°24' E 018°40'1 1.6
2018-Oct-20 03:30N 54°25' E 018°39'1 2.6
2018-Oct-20 03:03N 54°26' E 018°39'0 5.9
2018-Oct-20 03:00N 54°26' E 018°40'3 6.4
2018-Oct-20 02:31N 54°29' E 018°43'510.3
2018-Oct-20 02:03N 54°32' E 018°48'110.9
2018-Oct-20 02:00N 54°33' E 018°49'510.7
2018-Oct-20 01:31N 54°37' E 018°54'510.4
2018-Oct-20 01:03N 54°42' E 018°57'010.5
2018-Oct-20 01:01N 54°42' E 018°57'510.4
2018-Oct-20 00:30N 54°47' E 019°00'4 8.3
2018-Oct-20 00:03N 54°51' E 019°02'0 9.5
2018-Oct-20 00:00N 54°51' E 019°02'5 9.3
2018-Oct-19 23:31N 54°55' E 019°06'72 3.4
2018-Oct-19 02:23N 55°46' E 020°35'8014.5
2018-Oct-18 20:54N 56°16' E 018°22'2413.8
2018-Oct-18 19:08N 56°37' E 017°59'214.8
2018-Oct-18 19:01N 56°38' E 017°58'015.4
2018-Oct-18 19:00N 56°39' E 017°58'2515.1
2018-Oct-18 17:22N 57°03' E 017°48'15 0.9
2018-Oct-18 00:56N 56°54' E 017°24'614.1
2018-Oct-18 00:30N 56°48' E 017°20'614.2
2018-Oct-18 00:03N 56°42' E 017°16'113.9
2018-Oct-18 00:00N 56°42' E 017°16'714.2
2018-Oct-17 23:30N 56°35' E 017°12'714.5
2018-Oct-17 23:03N 56°29' E 017°07'114.5
2018-Oct-17 23:00N 56°28' E 017°07'714.5
2018-Oct-17 22:30N 56°21' E 017°02'714.6
2018-Oct-17 22:04N 56°15' E 016°58'114.5
2018-Oct-17 22:01N 56°15' E 016°58'714.4
2018-Oct-17 21:30N 56°08' E 016°52'614.3
2018-Oct-17 21:04N 56°03' E 016°45'114.3
2018-Oct-17 21:00N 56°03' E 016°44'714.2
2018-Oct-17 20:30N 55°58' E 016°33'614.3
2018-Oct-17 20:03N 55°55' E 016°24'114.5
2018-Oct-17 20:01N 55°54' E 016°23'714.6
2018-Oct-17 19:30N 55°50' E 016°12'714.5
2018-Oct-17 19:03N 55°47' E 016°03'114.3
2018-Oct-17 19:00N 55°46' E 016°01'714.1
2018-Oct-17 18:30N 55°43' E 015°51'614.2
2018-Oct-17 18:03N 55°40' E 015°40'114.6
2018-Oct-17 18:01N 55°40' E 015°39'815.0
2018-Oct-17 17:30N 55°38' E 015°26'715.5
2018-Oct-17 17:03N 55°35' E 015°15'115.6
2018-Oct-17 17:01N 55°34' E 015°14'815.5
2018-Oct-17 16:30N 55°31' E 015°02'715.7
2018-Oct-17 16:03N 55°27' E 014°51'115.7
2018-Oct-17 16:01N 55°27' E 014°50'1115.1
2018-Oct-17 15:15N 55°20' E 014°34'415.1
2018-Oct-17 15:00N 55°17' E 014°30'1212.4
2018-Oct-17 14:00N 55°06' E 014°40'0 0.0
2018-Oct-17 13:29N 55°06' E 014°40'0 0.0
2018-Oct-17 12:59N 55°06' E 014°40'0 0.0
2018-Oct-17 12:29N 55°06' E 014°40'0 0.0
2018-Oct-17 11:59N 55°06' E 014°40'0 0.0
2018-Oct-17 11:29N 55°06' E 014°40'0 0.0
2018-Oct-17 10:59N 55°06' E 014°40'0 0.0
2018-Oct-17 10:23N 55°06' E 014°40'0 0.0
2018-Oct-17 09:53N 55°06' E 014°40'0 0.0
2018-Oct-17 09:26N 55°06' E 014°40'0 0.0
2018-Oct-17 08:59N 55°06' E 014°40'0 0.0
2018-Oct-17 08:26N 55°06' E 014°40'0 0.0
2018-Oct-17 08:02N 55°06' E 014°40'0 0.1
2018-Oct-17 07:56N 55°06' E 014°40'0 0.0
2018-Oct-17 07:29N 55°06' E 014°40'0 0.0
2018-Oct-17 07:02N 55°06' E 014°40'0 0.0
2018-Oct-17 06:56N 55°06' E 014°40'0 0.0
2018-Oct-17 06:26N 55°06' E 014°40'0 0.0
2018-Oct-17 06:02N 55°06' E 014°40'0 0.1
2018-Oct-17 05:56N 55°06' E 014°40'0 0.0
2018-Oct-17 05:26N 55°06' E 014°40'0 0.0
2018-Oct-17 05:02N 55°06' E 014°40'0 0.1
2018-Oct-17 04:56N 55°06' E 014°40'0 0.1
2018-Oct-17 04:30N 55°06' E 014°40'2 3.5
2018-Oct-17 04:03N 55°05' E 014°38'112.0
2018-Oct-17 04:00N 55°05' E 014°37'612.5
2018-Oct-17 03:30N 55°03' E 014°26'613.0
2018-Oct-17 03:03N 55°02' E 014°16'113.2
2018-Oct-17 03:00N 55°02' E 014°15'813.4
2018-Oct-17 02:23N 54°60' E 014°01'1714.7
2018-Oct-17 01:14N 54°55' E 013°33'514.6
2018-Oct-17 00:55N 54°54' E 013°25'914.8
2018-Oct-17 00:18N 54°51' E 013°10'914.9
2018-Oct-16 23:42N 54°47' E 012°56'314.6
2018-Oct-16 23:28N 54°46' E 012°50'614.4
2018-Oct-16 23:03N 54°43' E 012°41'114.6
2018-Oct-16 23:00N 54°43' E 012°40'714.3
2018-Oct-16 22:30N 54°39' E 012°30'614.1
2018-Oct-16 22:03N 54°35' E 012°21'114.4
2018-Oct-16 22:00N 54°35' E 012°20'714.3
2018-Oct-16 21:29N 54°28' E 012°15'614.2
2018-Oct-16 21:03N 54°24' E 012°07'316.4
2018-Oct-16 20:51N 54°24' E 012°01'615.7
2018-Oct-16 20:28N 54°22' E 011°52'915.8
2018-Oct-16 19:53N 54°17' E 011°38'615.6
2018-Oct-16 19:30N 54°13' E 011°30'815.1
2018-Oct-16 18:58N 54°05' E 011°27'4 8.2
2018-Oct-16 18:30N 54°02' E 011°23'3 7.6
2018-Oct-16 18:03N 53°59' E 011°20'0 8.6
2018-Oct-16 18:01N 53°59' E 011°20'4 8.5
2018-Oct-16 17:30N 53°56' E 011°25'2 4.8
2018-Oct-16 17:03N 53°54' E 011°28'0 0.1
2018-Oct-16 17:00N 53°54' E 011°28'0 0.0
2018-Oct-16 16:30N 53°54' E 011°28'0 0.0
2018-Oct-16 16:03N 53°54' E 011°28'0 0.1
2018-Oct-16 16:01N 53°54' E 011°28'0 0.0
2018-Oct-16 15:30N 53°54' E 011°28'0 0.0
2018-Oct-16 15:03N 53°54' E 011°28'0 0.0
2018-Oct-16 15:00N 53°54' E 011°28'0 0.0
2018-Oct-16 14:30N 53°54' E 011°28'0 0.0
2018-Oct-16 14:00N 53°54' E 011°28'0 0.0
2018-Oct-16 13:30N 53°54' E 011°28'0 0.0
2018-Oct-16 13:03N 53°54' E 011°28'0 0.1
2018-Oct-16 13:00N 53°54' E 011°28'0 0.0
2018-Oct-16 12:30N 53°54' E 011°28'0 0.0
2018-Oct-16 12:03N 53°54' E 011°28'0 0.0
2018-Oct-16 12:00N 53°54' E 011°28'0 0.0
2018-Oct-16 11:30N 53°54' E 011°28'0 0.0
2018-Oct-16 11:03N 53°54' E 011°28'0 0.1
2018-Oct-16 11:00N 53°54' E 011°28'0 0.0
2018-Oct-16 10:30N 53°54' E 011°28'1 1.3
2018-Oct-16 10:03N 53°54' E 011°27'0 4.0
2018-Oct-16 10:00N 53°54' E 011°27'4 7.6
2018-Oct-16 09:30N 53°58' E 011°23'4 8.3
2018-Oct-16 09:03N 54°01' E 011°20'0 8.4
2018-Oct-16 09:00N 54°01' E 011°21'5 9.8
2018-Oct-16 08:31N 54°04' E 011°27'4 8.5
2018-Oct-16 08:03N 54°08' E 011°27'0 9.1
2018-Oct-16 08:00N 54°09' E 011°27'13 9.6
2018-Oct-16 06:40N 54°21' E 011°27'510.1
2018-Oct-16 06:11N 54°26' E 011°29'111.1
2018-Oct-16 06:03N 54°27' E 011°31'111.2
2018-Oct-16 06:00N 54°27' E 011°32'5 9.4
2018-Oct-16 05:30N 54°30' E 011°25'612.4
2018-Oct-16 05:03N 54°33' E 011°17'111.8
2018-Oct-16 05:00N 54°33' E 011°16'612.2
2018-Oct-16 04:30N 54°35' E 011°06'612.6
2018-Oct-16 04:03N 54°35' E 010°56'112.5
2018-Oct-16 04:01N 54°35' E 010°55'612.8
2018-Oct-16 03:30N 54°34' E 010°44'612.7
2018-Oct-16 03:03N 54°33' E 010°34'112.6
2018-Oct-16 03:00N 54°33' E 010°33'612.6
2018-Oct-16 02:30N 54°31' E 010°23'511.0
2018-Oct-16 02:03N 54°28' E 010°16'110.4
2018-Oct-16 02:01N 54°28' E 010°15'611.6
2018-Oct-16 01:30N 54°23' E 010°11'2 3.5
2018-Oct-16 01:03N 54°22' E 010°09'0 0.0
2018-Oct-16 01:00N 54°22' E 010°09'1 2.6
2018-Oct-16 00:30N 54°22' E 010°06'3 7.1
2018-Oct-16 00:03N 54°22' E 010°01'0 7.2
2018-Oct-16 00:00N 54°21' E 010°01'3 6.9
2018-Oct-15 23:30N 54°21' E 009°55'3 7.6
2018-Oct-15 23:03N 54°22' E 009°49'0 7.4
2018-Oct-15 23:00N 54°22' E 009°48'4 7.8
2018-Oct-15 22:30N 54°19' E 009°43'3 6.5
2018-Oct-15 22:03N 54°17' E 009°39'0 8.0
2018-Oct-15 22:00N 54°17' E 009°39'2 4.2
2018-Oct-15 21:30N 54°15' E 009°37'3 6.0
2018-Oct-15 21:03N 54°13' E 009°35'0 6.6
2018-Oct-15 21:00N 54°13' E 009°35'4 8.2
2018-Oct-15 20:30N 54°11' E 009°29'4 8.3
2018-Oct-15 20:03N 54°09' E 009°23'0 8.4
2018-Oct-15 20:00N 54°09' E 009°22'4 7.9
2018-Oct-15 19:29N 54°05' E 009°19'4 8.5
2018-Oct-15 19:03N 54°02' E 009°18'0 8.2
2018-Oct-15 19:00N 54°01' E 009°18'4 8.1
2018-Oct-15 18:30N 53°58' E 009°15'4 8.5
2018-Oct-15 18:03N 53°55' E 009°11'1 8.0
2018-Oct-15 17:55N 53°54' E 009°09'1 1.0
2018-Oct-15 17:18N 53°54' E 009°09'0 0.4
2018-Oct-15 17:02N 53°54' E 009°09'0 3.4
2018-Oct-15 16:57N 53°53' E 009°08'1 3.0
2018-Oct-15 16:30N 53°53' E 009°06'611.4
2018-Oct-15 15:57N 53°51' E 008°56'814.6
2018-Oct-15 15:25N 53°52' E 008°43'616.1
2018-Oct-15 15:03N 53°57' E 008°37'115.9
2018-Oct-15 15:00N 53°58' E 008°36'816.0
2018-Oct-15 14:30N 53°59' E 008°23'1214.3
2018-Oct-15 13:39N 53°59' E 008°02'314.9
2018-Oct-15 13:28N 53°58' E 007°58'6015.0
2018-Oct-15 09:28N 53°44' E 006°19'715.6
2018-Oct-15 09:03N 53°42' E 006°08'115.4
2018-Oct-15 09:00N 53°42' E 006°07'815.5
2018-Oct-15 08:30N 53°40' E 005°54'715.3
2018-Oct-15 08:03N 53°37' E 005°43'115.3
2018-Oct-15 08:00N 53°37' E 005°42'815.1
2018-Oct-15 07:30N 53°35' E 005°30'714.7
2018-Oct-15 07:03N 53°33' E 005°20'114.6
2018-Oct-15 07:00N 53°32' E 005°18'714.5
2018-Oct-15 06:30N 53°30' E 005°07'614.3
2018-Oct-15 06:03N 53°27' E 004°57'114.3
2018-Oct-15 06:00N 53°27' E 004°56'714.1
2018-Oct-15 05:30N 53°24' E 004°45'613.4
2018-Oct-15 05:03N 53°20' E 004°38'114.0
2018-Oct-15 05:01N 53°19' E 004°38'714.0
2018-Oct-15 04:30N 53°13' E 004°33'614.0
2018-Oct-15 04:04N 53°07' E 004°28'114.0
2018-Oct-15 04:01N 53°06' E 004°27'713.9
2018-Oct-15 03:30N 53°00' E 004°22'613.7
2018-Oct-15 03:03N 52°55' E 004°17'113.8
2018-Oct-15 03:00N 52°54' E 004°17'713.6
2018-Oct-15 02:30N 52°48' E 004°12'613.6
2018-Oct-15 02:03N 52°43' E 004°06'113.4
2018-Oct-15 02:00N 52°43' E 004°05'713.4
2018-Oct-15 01:30N 52°38' E 003°58'613.4
2018-Oct-15 01:03N 52°34' E 003°50'113.4
2018-Oct-15 01:00N 52°33' E 003°49'713.3
2018-Oct-15 00:30N 52°29' E 003°41'613.2
2018-Oct-15 00:03N 52°25' E 003°34'113.2
2018-Oct-15 00:00N 52°24' E 003°34'713.3
2018-Oct-14 23:30N 52°20' E 003°26'613.3
2018-Oct-14 23:03N 52°15' E 003°19'113.4
2018-Oct-14 23:00N 52°15' E 003°18'713.4
2018-Oct-14 22:30N 52°10' E 003°11'2913.4
2018-Oct-14 20:20N 51°54' E 002°32'615.0
2018-Oct-14 19:56N 51°53' E 002°22'815.4
2018-Oct-14 19:25N 51°53' E 002°09'615.6
2018-Oct-14 19:03N 51°51' E 002°01'115.8
2018-Oct-14 19:01N 51°50' E 001°60'714.7
2018-Oct-14 18:31N 51°49' E 001°48'715.1
2018-Oct-14 18:03N 51°51' E 001°37'111.8
2018-Oct-14 18:00N 51°51' E 001°36'3 6.7
2018-Oct-14 17:30N 51°48' E 001°33'4 8.0
2018-Oct-14 17:03N 51°45' E 001°30'110.8
2018-Oct-14 17:00N 51°45' E 001°30'510.9
2018-Oct-14 16:30N 51°40' E 001°25'613.3
2018-Oct-14 16:04N 51°36' E 001°18'115.3
2018-Oct-14 16:01N 51°36' E 001°17'714.6
2018-Oct-14 15:31N 51°32' E 001°07'613.8
2018-Oct-14 15:03N 51°29' E 000°58'113.2
2018-Oct-14 15:00N 51°29' E 000°57'713.3
2018-Oct-14 14:30N 51°29' E 000°46'713.2
2018-Oct-14 14:00N 51°30' E 000°36'611.5
2018-Oct-14 13:30N 51°28' E 000°27'3 7.6
2018-Oct-14 13:03N 51°27' E 000°22'0 0.0
2018-Oct-14 13:00N 51°27' E 000°22'0 0.0
2018-Oct-14 12:30N 51°27' E 000°22'0 0.0
2018-Oct-14 12:03N 51°27' E 000°22'0 0.0
2018-Oct-14 12:00N 51°27' E 000°22'0 0.0
2018-Oct-14 11:30N 51°27' E 000°22'0 0.0
2018-Oct-14 11:03N 51°27' E 000°22'0 0.1
2018-Oct-14 11:00N 51°27' E 000°22'0 0.0
2018-Oct-14 10:30N 51°27' E 000°22'0 0.0
2018-Oct-14 10:03N 51°27' E 000°22'0 0.0
2018-Oct-14 10:00N 51°27' E 000°22'0 0.0
2018-Oct-14 09:30N 51°27' E 000°22'0 0.0
2018-Oct-14 09:03N 51°27' E 000°22'0 0.0
2018-Oct-14 09:00N 51°27' E 000°22'0 0.0
2018-Oct-14 08:30N 51°27' E 000°22'0 0.0
2018-Oct-14 08:00N 51°27' E 000°22'0 0.0
2018-Oct-14 07:30N 51°27' E 000°22'0 0.0
2018-Oct-14 07:03N 51°27' E 000°22'0 0.0
2018-Oct-14 07:00N 51°27' E 000°22'0 0.0
2018-Oct-14 06:30N 51°27' E 000°22'0 0.3
2018-Oct-14 06:04N 51°27' E 000°22'0 1.1
2018-Oct-14 06:00N 51°27' E 000°22'1 2.2
2018-Oct-14 05:31N 51°27' E 000°24'3 7.1
2018-Oct-14 05:04N 51°29' E 000°28'110.3
2018-Oct-14 05:00N 51°30' E 000°28'510.2
2018-Oct-14 04:31N 51°30' E 000°36'511.1
2018-Oct-14 04:03N 51°30' E 000°44'111.6
2018-Oct-14 04:00N 51°30' E 000°45'713.0
2018-Oct-14 03:30N 51°29' E 000°56'614.4
2018-Oct-14 03:03N 51°31' E 001°05'115.2
2018-Oct-14 03:00N 51°32' E 001°06'815.1
2018-Oct-14 02:30N 51°36' E 001°17'715.3
2018-Oct-14 02:03N 51°40' E 001°25'115.4
2018-Oct-14 02:00N 51°41' E 001°26'815.1
2018-Oct-14 01:30N 51°47' E 001°33'613.3
2018-Oct-14 01:04N 51°51' E 001°40'0 5.3
2018-Oct-14 01:00N 51°51' E 001°40'510.0
2018-Oct-14 00:30N 51°55' E 001°45'715.5
2018-Oct-14 00:03N 52°02' E 001°48'116.2
2018-Oct-14 00:00N 52°03' E 001°48'816.7
2018-Oct-13 23:30N 52°11' E 001°51'816.8
2018-Oct-13 23:03N 52°19' E 001°54'116.9
2018-Oct-13 23:00N 52°19' E 001°54'1716.8
2018-Oct-13 21:59N 52°36' E 002°02'816.2
2018-Oct-13 21:31N 52°43' E 002°04'816.2
2018-Oct-13 21:03N 52°48' E 001°54'116.9
2018-Oct-13 21:01N 52°48' E 001°53'816.2
2018-Oct-13 20:31N 52°53' E 001°42'716.4
2018-Oct-13 20:03N 52°57' E 001°32'115.9
2018-Oct-13 20:01N 52°58' E 001°32'815.6
2018-Oct-13 19:31N 53°04' E 001°25'715.3
2018-Oct-13 19:03N 53°10' E 001°19'115.2
2018-Oct-13 19:01N 53°11' E 001°18'815.1
2018-Oct-13 18:31N 53°18' E 001°12'715.1
2018-Oct-13 18:03N 53°24' E 001°06'115.5
2018-Oct-13 18:00N 53°24' E 001°06'4314.6
2018-Oct-13 15:04N 54°04' E 000°37'014.0
2018-Oct-13 15:03N 54°04' E 000°37'114.5
2018-Oct-13 15:01N 54°04' E 000°37'714.2
2018-Oct-13 14:30N 54°11' E 000°33'713.9
2018-Oct-13 13:58N 54°18' E 000°29'20514.2
2018-Oct-12 23:34N 57°31' W 001°34'112.0
2018-Oct-12 23:29N 57°32' W 001°35'613.0
2018-Oct-12 23:04N 57°37' W 001°39'113.5
2018-Oct-12 23:00N 57°37' W 001°39'  
Track history (hours):
 
Tides and Currents Weather Stations Pressure Air Temp Water Temp Dewpoint Dewpoint Depression Visibility Wind Speed Wind Dir Waves Ship Positions

Marco Polo

Operator: Orient Lines

Last reported at 2018-Oct-22 19:43 UTC. Time now 2018-Oct-22 22:36 UTC.
Position N 52°24' E 003°14'.

Type: Ship. MMSI: 308691456.

Date/timePositionNaut miles runAvg speedWind from/ knotsBaromVisibWave heightAir tempDewpointWater temp
2018-Oct-22 19:43N 52°24' E 003°14'414.4
2018-Oct-22 19:26N 52°27' E 003°18'614.4
2018-Oct-22 19:00N 52°32' E 003°24'1114.1
2018-Oct-22 18:13N 52°41' E 003°35'2313.4
2018-Oct-22 16:30N 52°58' E 004°01'1112.8
2018-Oct-22 15:39N 53°06' E 004°14'212.7
2018-Oct-22 15:30N 53°07' E 004°16'612.3
2018-Oct-22 15:03N 53°11' E 004°23'112.6
2018-Oct-22 15:00N 53°11' E 004°23'1312.8
2018-Oct-22 14:00N 53°23' E 004°32'713.0
2018-Oct-22 13:25N 53°29' E 004°40'1113.7
2018-Oct-22 12:36N 53°34' E 004°57'213.8
2018-Oct-22 12:29N 53°34' E 004°60'614.0
2018-Oct-22 12:04N 53°36' E 005°09'114.0
2018-Oct-22 11:59N 53°37' E 005°11'1214.0
2018-Oct-22 11:08N 53°41' E 005°30'5512.9
2018-Oct-22 06:51N 53°55' E 007°00'1712.2
2018-Oct-22 05:27N 53°59' E 007°28'512.7
2018-Oct-22 05:03N 54°01' E 007°37'112.6
2018-Oct-22 05:00N 54°01' E 007°38'612.6
2018-Oct-22 04:30N 54°01' E 007°48'613.1
2018-Oct-22 04:03N 54°01' E 007°58'113.3
2018-Oct-22 04:00N 54°01' E 007°60'713.5
2018-Oct-22 03:30N 54°00' E 008°11'612.7
2018-Oct-22 03:03N 53°60' E 008°20'115.5
2018-Oct-22 03:00N 53°59' E 008°22'816.0
2018-Oct-22 02:30N 53°58' E 008°35'715.3
2018-Oct-22 02:03N 53°53' E 008°43'113.0
2018-Oct-22 02:00N 53°52' E 008°44'713.2
2018-Oct-22 01:30N 53°51' E 008°54'614.3
2018-Oct-22 01:03N 53°53' E 009°05'114.2
2018-Oct-22 01:01N 53°53' E 009°06'2 3.6
2018-Oct-22 00:30N 53°54' E 009°09'0 0.0
2018-Oct-22 00:03N 53°54' E 009°09'0 0.1
2018-Oct-22 00:00N 53°54' E 009°09'1 2.9
2018-Oct-21 23:30N 53°55' E 009°10'0 0.1
2018-Oct-21 23:03N 53°55' E 009°10'0 0.2
2018-Oct-21 23:00N 53°55' E 009°10'1 2.2
2018-Oct-21 22:30N 53°55' E 009°12'3 6.0
2018-Oct-21 22:03N 53°57' E 009°15'0 5.8
2018-Oct-21 22:00N 53°58' E 009°15'3 5.8
2018-Oct-21 21:30N 54°00' E 009°18'7 6.4
2018-Oct-21 20:30N 54°06' E 009°20'3 5.7
2018-Oct-21 20:03N 54°09' E 009°21'0 6.5
2018-Oct-21 20:00N 54°09' E 009°22'4 7.3
2018-Oct-21 19:30N 54°11' E 009°27'3 6.0
2018-Oct-21 19:03N 54°12' E 009°32'0 6.0
2018-Oct-21 19:00N 54°12' E 009°32'3 6.2
2018-Oct-21 18:30N 54°14' E 009°36'3 5.6
2018-Oct-21 18:03N 54°16' E 009°38'0 4.0
2018-Oct-21 18:00N 54°16' E 009°38'4 7.1
2018-Oct-21 17:30N 54°18' E 009°43'4 8.3
2018-Oct-21 17:03N 54°21' E 009°47'0 8.0
2018-Oct-21 17:00N 54°22' E 009°47'4 7.9
2018-Oct-21 16:30N 54°21' E 009°54'3 7.3
2018-Oct-21 16:03N 54°21' E 009°59'0 7.2
2018-Oct-21 16:00N 54°21' E 009°60'2 4.3
2018-Oct-21 15:30N 54°22' E 010°03'0 0.1
2018-Oct-21 15:03N 54°22' E 010°04'0 1.9
2018-Oct-21 15:00N 54°22' E 010°04'3 2.9
2018-Oct-21 14:03N 54°22' E 010°08'1 1.7
2018-Oct-21 13:30N 54°22' E 010°10'1 1.1
2018-Oct-21 13:03N 54°22' E 010°11'0 1.4
2018-Oct-21 13:00N 54°22' E 010°11'3 6.6
2018-Oct-21 12:30N 54°25' E 010°13'511.2
2018-Oct-21 12:03N 54°30' E 010°17'0 8.5
2018-Oct-21 12:00N 54°30' E 010°18'510.9
2018-Oct-21 11:30N 54°32' E 010°26'613.7
2018-Oct-21 11:03N 54°35' E 010°36'113.9
2018-Oct-21 11:00N 54°35' E 010°38'713.9
2018-Oct-21 10:31N 54°36' E 010°49'613.8
2018-Oct-21 10:03N 54°36' E 010°60'114.5
2018-Oct-21 10:01N 54°36' E 011°01'713.8
2018-Oct-21 09:30N 54°35' E 011°13'715.1
2018-Oct-21 09:03N 54°32' E 011°24'115.2
2018-Oct-21 09:00N 54°32' E 011°25'714.8
2018-Oct-21 08:30N 54°29' E 011°36'714.4
2018-Oct-21 08:00N 54°26' E 011°48'714.6
2018-Oct-21 07:30N 54°26' E 012°00'613.8
2018-Oct-21 07:03N 54°27' E 012°11'114.8
2018-Oct-21 07:00N 54°28' E 012°12'714.5
2018-Oct-21 06:30N 54°35' E 012°14'614.3
2018-Oct-21 06:03N 54°39' E 012°22'114.8
2018-Oct-21 05:58N 54°40' E 012°23'714.9
2018-Oct-21 05:28N 54°44' E 012°34'714.5
2018-Oct-21 05:00N 54°47' E 012°45'7615.6
2018-Oct-21 00:07N 54°41' E 014°56'216.6
2018-Oct-20 23:59N 54°41' E 014°60'816.5
2018-Oct-20 23:29N 54°42' E 015°14'9916.3
2018-Oct-20 17:23N 54°57' E 018°04'516.0
2018-Oct-20 17:03N 54°58' E 018°13'115.8
2018-Oct-20 17:00N 54°58' E 018°15'816.1
2018-Oct-20 16:30N 54°58' E 018°29'715.7
2018-Oct-20 16:03N 54°56' E 018°40'116.5
2018-Oct-20 16:00N 54°55' E 018°41'816.8
2018-Oct-20 15:30N 54°50' E 018°52'715.5
2018-Oct-20 15:03N 54°44' E 018°59'116.6
2018-Oct-20 15:00N 54°43' E 018°58'1516.0
2018-Oct-20 14:03N 54°30' E 018°46'610.8
2018-Oct-20 13:31N 54°25' E 018°39'1 1.9
2018-Oct-20 13:02N 54°24' E 018°40'0 0.1
2018-Oct-20 12:59N 54°24' E 018°40'0 0.0
2018-Oct-20 12:29N 54°24' E 018°40'0 0.0
2018-Oct-20 12:02N 54°24' E 018°40'0 0.1
2018-Oct-20 11:59N 54°24' E 018°40'0 0.0
2018-Oct-20 11:29N 54°24' E 018°40'0 0.0
2018-Oct-20 11:02N 54°24' E 018°40'0 0.0
2018-Oct-20 10:59N 54°24' E 018°40'0 0.0
2018-Oct-20 10:29N 54°24' E 018°40'0 0.0
2018-Oct-20 10:02N 54°24' E 018°40'0 0.0
2018-Oct-20 09:59N 54°24' E 018°40'0 0.0
2018-Oct-20 09:29N 54°24' E 018°40'0 0.0
2018-Oct-20 09:02N 54°24' E 018°40'0 0.1
2018-Oct-20 08:59N 54°24' E 018°40'0 0.0
2018-Oct-20 08:26N 54°24' E 018°40'0 0.0
2018-Oct-20 08:02N 54°24' E 018°40'0 0.0
2018-Oct-20 07:59N 54°24' E 018°40'0 0.0
2018-Oct-20 07:29N 54°24' E 018°40'0 0.0
2018-Oct-20 07:02N 54°24' E 018°40'0 0.1
2018-Oct-20 06:59N 54°24' E 018°40'0 0.0
2018-Oct-20 06:29N 54°24' E 018°40'0 0.0
2018-Oct-20 06:02N 54°24' E 018°40'0 0.1
2018-Oct-20 05:59N 54°24' E 018°40'0 0.0
2018-Oct-20 05:26N 54°24' E 018°40'0 0.0
2018-Oct-20 05:02N 54°24' E 018°40'0 0.1
2018-Oct-20 04:59N 54°24' E 018°40'0 0.0
2018-Oct-20 04:29N 54°24' E 018°40'0 0.0
2018-Oct-20 04:03N 54°24' E 018°40'0 0.1
2018-Oct-20 04:00N 54°24' E 018°40'1 1.6
2018-Oct-20 03:30N 54°25' E 018°39'1 2.6
2018-Oct-20 03:03N 54°26' E 018°39'0 5.9
2018-Oct-20 03:00N 54°26' E 018°40'3 6.4
2018-Oct-20 02:31N 54°29' E 018°43'510.3
2018-Oct-20 02:03N 54°32' E 018°48'110.9
2018-Oct-20 02:00N 54°33' E 018°49'510.7
2018-Oct-20 01:31N 54°37' E 018°54'510.4
2018-Oct-20 01:03N 54°42' E 018°57'010.5
2018-Oct-20 01:01N 54°42' E 018°57'510.4
2018-Oct-20 00:30N 54°47' E 019°00'4 8.3
2018-Oct-20 00:03N 54°51' E 019°02'0 9.5
2018-Oct-20 00:00N 54°51' E 019°02'5 9.3
2018-Oct-19 23:31N 54°55' E 019°06'72 3.4
2018-Oct-19 02:23N 55°46' E 020°35'8014.5
2018-Oct-18 20:54N 56°16' E 018°22'2413.8
2018-Oct-18 19:08N 56°37' E 017°59'214.8
2018-Oct-18 19:01N 56°38' E 017°58'015.4
2018-Oct-18 19:00N 56°39' E 017°58'2515.1
2018-Oct-18 17:22N 57°03' E 017°48'15 0.9
2018-Oct-18 00:56N 56°54' E 017°24'614.1
2018-Oct-18 00:30N 56°48' E 017°20'614.2
2018-Oct-18 00:03N 56°42' E 017°16'113.9
2018-Oct-18 00:00N 56°42' E 017°16'714.2
2018-Oct-17 23:30N 56°35' E 017°12'714.5
2018-Oct-17 23:03N 56°29' E 017°07'114.5
2018-Oct-17 23:00N 56°28' E 017°07'714.5
2018-Oct-17 22:30N 56°21' E 017°02'714.6
2018-Oct-17 22:04N 56°15' E 016°58'114.5
2018-Oct-17 22:01N 56°15' E 016°58'714.4
2018-Oct-17 21:30N 56°08' E 016°52'614.3
2018-Oct-17 21:04N 56°03' E 016°45'114.3
2018-Oct-17 21:00N 56°03' E 016°44'714.2
2018-Oct-17 20:30N 55°58' E 016°33'614.3
2018-Oct-17 20:03N 55°55' E 016°24'114.5
2018-Oct-17 20:01N 55°54' E 016°23'714.6
2018-Oct-17 19:30N 55°50' E 016°12'714.5
2018-Oct-17 19:03N 55°47' E 016°03'114.3
2018-Oct-17 19:00N 55°46' E 016°01'714.1
2018-Oct-17 18:30N 55°43' E 015°51'614.2
2018-Oct-17 18:03N 55°40' E 015°40'114.6
2018-Oct-17 18:01N 55°40' E 015°39'815.0
2018-Oct-17 17:30N 55°38' E 015°26'715.5
2018-Oct-17 17:03N 55°35' E 015°15'115.6
2018-Oct-17 17:01N 55°34' E 015°14'815.5
2018-Oct-17 16:30N 55°31' E 015°02'715.7
2018-Oct-17 16:03N 55°27' E 014°51'115.7
2018-Oct-17 16:01N 55°27' E 014°50'1115.1
2018-Oct-17 15:15N 55°20' E 014°34'415.1
2018-Oct-17 15:00N 55°17' E 014°30'1212.4
2018-Oct-17 14:00N 55°06' E 014°40'0 0.0
2018-Oct-17 13:29N 55°06' E 014°40'0 0.0
2018-Oct-17 12:59N 55°06' E 014°40'0 0.0
2018-Oct-17 12:29N 55°06' E 014°40'0 0.0
2018-Oct-17 11:59N 55°06' E 014°40'0 0.0
2018-Oct-17 11:29N 55°06' E 014°40'0 0.0
2018-Oct-17 10:59N 55°06' E 014°40'0 0.0
2018-Oct-17 10:23N 55°06' E 014°40'0 0.0
2018-Oct-17 09:53N 55°06' E 014°40'0 0.0
2018-Oct-17 09:26N 55°06' E 014°40'0 0.0
2018-Oct-17 08:59N 55°06' E 014°40'0 0.0
2018-Oct-17 08:26N 55°06' E 014°40'0 0.0
2018-Oct-17 08:02N 55°06' E 014°40'0 0.1
2018-Oct-17 07:56N 55°06' E 014°40'0 0.0
2018-Oct-17 07:29N 55°06' E 014°40'0 0.0
2018-Oct-17 07:02N 55°06' E 014°40'0 0.0
2018-Oct-17 06:56N 55°06' E 014°40'0 0.0
2018-Oct-17 06:26N 55°06' E 014°40'0 0.0
2018-Oct-17 06:02N 55°06' E 014°40'0 0.1
2018-Oct-17 05:56N 55°06' E 014°40'0 0.0
2018-Oct-17 05:26N 55°06' E 014°40'0 0.0
2018-Oct-17 05:02N 55°06' E 014°40'0 0.1
2018-Oct-17 04:56N 55°06' E 014°40'0 0.1
2018-Oct-17 04:30N 55°06' E 014°40'2 3.5
2018-Oct-17 04:03N 55°05' E 014°38'112.0
2018-Oct-17 04:00N 55°05' E 014°37'612.5
2018-Oct-17 03:30N 55°03' E 014°26'613.0
2018-Oct-17 03:03N 55°02' E 014°16'113.2
2018-Oct-17 03:00N 55°02' E 014°15'813.4
2018-Oct-17 02:23N 54°60' E 014°01'1714.7
2018-Oct-17 01:14N 54°55' E 013°33'514.6
2018-Oct-17 00:55N 54°54' E 013°25'914.8
2018-Oct-17 00:18N 54°51' E 013°10'914.9
2018-Oct-16 23:42N 54°47' E 012°56'314.6
2018-Oct-16 23:28N 54°46' E 012°50'614.4
2018-Oct-16 23:03N 54°43' E 012°41'114.6
2018-Oct-16 23:00N 54°43' E 012°40'714.3
2018-Oct-16 22:30N 54°39' E 012°30'614.1
2018-Oct-16 22:03N 54°35' E 012°21'114.4
2018-Oct-16 22:00N 54°35' E 012°20'714.3
2018-Oct-16 21:29N 54°28' E 012°15'614.2
2018-Oct-16 21:03N 54°24' E 012°07'316.4
2018-Oct-16 20:51N 54°24' E 012°01'615.7
2018-Oct-16 20:28N 54°22' E 011°52'915.8
2018-Oct-16 19:53N 54°17' E 011°38'615.6
2018-Oct-16 19:30N 54°13' E 011°30'815.1
2018-Oct-16 18:58N 54°05' E 011°27'4 8.2
2018-Oct-16 18:30N 54°02' E 011°23'3 7.6
2018-Oct-16 18:03N 53°59' E 011°20'0 8.6
2018-Oct-16 18:01N 53°59' E 011°20'4 8.5
2018-Oct-16 17:30N 53°56' E 011°25'2 4.8
2018-Oct-16 17:03N 53°54' E 011°28'0 0.1
2018-Oct-16 17:00N 53°54' E 011°28'0 0.0
2018-Oct-16 16:30N 53°54' E 011°28'0 0.0
2018-Oct-16 16:03N 53°54' E 011°28'0 0.1
2018-Oct-16 16:01N 53°54' E 011°28'0 0.0
2018-Oct-16 15:30N 53°54' E 011°28'0 0.0
2018-Oct-16 15:03N 53°54' E 011°28'0 0.0
2018-Oct-16 15:00N 53°54' E 011°28'0 0.0
2018-Oct-16 14:30N 53°54' E 011°28'0 0.0
2018-Oct-16 14:00N 53°54' E 011°28'0 0.0
2018-Oct-16 13:30N 53°54' E 011°28'0 0.0
2018-Oct-16 13:03N 53°54' E 011°28'0 0.1
2018-Oct-16 13:00N 53°54' E 011°28'0 0.0
2018-Oct-16 12:30N 53°54' E 011°28'0 0.0
2018-Oct-16 12:03N 53°54' E 011°28'0 0.0
2018-Oct-16 12:00N 53°54' E 011°28'0 0.0
2018-Oct-16 11:30N 53°54' E 011°28'0 0.0
2018-Oct-16 11:03N 53°54' E 011°28'0 0.1
2018-Oct-16 11:00N 53°54' E 011°28'0 0.0
2018-Oct-16 10:30N 53°54' E 011°28'1 1.3
2018-Oct-16 10:03N 53°54' E 011°27'0 4.0
2018-Oct-16 10:00N 53°54' E 011°27'4 7.6
2018-Oct-16 09:30N 53°58' E 011°23'4 8.3
2018-Oct-16 09:03N 54°01' E 011°20'0 8.4
2018-Oct-16 09:00N 54°01' E 011°21'5 9.8
2018-Oct-16 08:31N 54°04' E 011°27'4 8.5
2018-Oct-16 08:03N 54°08' E 011°27'0 9.1
2018-Oct-16 08:00N 54°09' E 011°27'13 9.6
2018-Oct-16 06:40N 54°21' E 011°27'510.1
2018-Oct-16 06:11N 54°26' E 011°29'111.1
2018-Oct-16 06:03N 54°27' E 011°31'111.2
2018-Oct-16 06:00N 54°27' E 011°32'5 9.4
2018-Oct-16 05:30N 54°30' E 011°25'612.4
2018-Oct-16 05:03N 54°33' E 011°17'111.8
2018-Oct-16 05:00N 54°33' E 011°16'612.2
2018-Oct-16 04:30N 54°35' E 011°06'612.6
2018-Oct-16 04:03N 54°35' E 010°56'112.5
2018-Oct-16 04:01N 54°35' E 010°55'612.8
2018-Oct-16 03:30N 54°34' E 010°44'612.7
2018-Oct-16 03:03N 54°33' E 010°34'112.6
2018-Oct-16 03:00N 54°33' E 010°33'612.6
2018-Oct-16 02:30N 54°31' E 010°23'511.0
2018-Oct-16 02:03N 54°28' E 010°16'110.4
2018-Oct-16 02:01N 54°28' E 010°15'611.6
2018-Oct-16 01:30N 54°23' E 010°11'2 3.5
2018-Oct-16 01:03N 54°22' E 010°09'0 0.0
2018-Oct-16 01:00N 54°22' E 010°09'1 2.6
2018-Oct-16 00:30N 54°22' E 010°06'3 7.1
2018-Oct-16 00:03N 54°22' E 010°01'0 7.2
2018-Oct-16 00:00N 54°21' E 010°01'3 6.9
2018-Oct-15 23:30N 54°21' E 009°55'3 7.6
2018-Oct-15 23:03N 54°22' E 009°49'0 7.4
2018-Oct-15 23:00N 54°22' E 009°48'4 7.8
2018-Oct-15 22:30N 54°19' E 009°43'3 6.5
2018-Oct-15 22:03N 54°17' E 009°39'0 8.0
2018-Oct-15 22:00N 54°17' E 009°39'2 4.2
2018-Oct-15 21:30N 54°15' E 009°37'3 6.0
2018-Oct-15 21:03N 54°13' E 009°35'0 6.6
2018-Oct-15 21:00N 54°13' E 009°35'4 8.2
2018-Oct-15 20:30N 54°11' E 009°29'4 8.3
2018-Oct-15 20:03N 54°09' E 009°23'0 8.4
2018-Oct-15 20:00N 54°09' E 009°22'4 7.9
2018-Oct-15 19:29N 54°05' E 009°19'4 8.5
2018-Oct-15 19:03N 54°02' E 009°18'0 8.2
2018-Oct-15 19:00N 54°01' E 009°18'4 8.1
2018-Oct-15 18:30N 53°58' E 009°15'4 8.5
2018-Oct-15 18:03N 53°55' E 009°11'1 8.0
2018-Oct-15 17:55N 53°54' E 009°09'1 1.0
2018-Oct-15 17:18N 53°54' E 009°09'0 0.4
2018-Oct-15 17:02N 53°54' E 009°09'0 3.4
2018-Oct-15 16:57N 53°53' E 009°08'1 3.0
2018-Oct-15 16:30N 53°53' E 009°06'611.4
2018-Oct-15 15:57N 53°51' E 008°56'814.6
2018-Oct-15 15:25N 53°52' E 008°43'616.1
2018-Oct-15 15:03N 53°57' E 008°37'115.9
2018-Oct-15 15:00N 53°58' E 008°36'816.0
2018-Oct-15 14:30N 53°59' E 008°23'1214.3
2018-Oct-15 13:39N 53°59' E 008°02'314.9
2018-Oct-15 13:28N 53°58' E 007°58'6015.0
2018-Oct-15 09:28N 53°44' E 006°19'715.6
2018-Oct-15 09:03N 53°42' E 006°08'115.4
2018-Oct-15 09:00N 53°42' E 006°07'815.5
2018-Oct-15 08:30N 53°40' E 005°54'715.3
2018-Oct-15 08:03N 53°37' E 005°43'115.3
2018-Oct-15 08:00N 53°37' E 005°42'815.1
2018-Oct-15 07:30N 53°35' E 005°30'714.7
2018-Oct-15 07:03N 53°33' E 005°20'114.6
2018-Oct-15 07:00N 53°32' E 005°18'714.5
2018-Oct-15 06:30N 53°30' E 005°07'614.3
2018-Oct-15 06:03N 53°27' E 004°57'114.3
2018-Oct-15 06:00N 53°27' E 004°56'714.1
2018-Oct-15 05:30N 53°24' E 004°45'613.4
2018-Oct-15 05:03N 53°20' E 004°38'114.0
2018-Oct-15 05:01N 53°19' E 004°38'714.0
2018-Oct-15 04:30N 53°13' E 004°33'614.0
2018-Oct-15 04:04N 53°07' E 004°28'114.0
2018-Oct-15 04:01N 53°06' E 004°27'713.9
2018-Oct-15 03:30N 53°00' E 004°22'613.7
2018-Oct-15 03:03N 52°55' E 004°17'113.8
2018-Oct-15 03:00N 52°54' E 004°17'713.6
2018-Oct-15 02:30N 52°48' E 004°12'613.6
2018-Oct-15 02:03N 52°43' E 004°06'113.4
2018-Oct-15 02:00N 52°43' E 004°05'713.4
2018-Oct-15 01:30N 52°38' E 003°58'613.4
2018-Oct-15 01:03N 52°34' E 003°50'113.4
2018-Oct-15 01:00N 52°33' E 003°49'713.3
2018-Oct-15 00:30N 52°29' E 003°41'613.2
2018-Oct-15 00:03N 52°25' E 003°34'113.2
2018-Oct-15 00:00N 52°24' E 003°34'713.3
2018-Oct-14 23:30N 52°20' E 003°26'613.3
2018-Oct-14 23:03N 52°15' E 003°19'113.4
2018-Oct-14 23:00N 52°15' E 003°18'713.4
2018-Oct-14 22:30N 52°10' E 003°11'2913.4
2018-Oct-14 20:20N 51°54' E 002°32'615.0
2018-Oct-14 19:56N 51°53' E 002°22'815.4
2018-Oct-14 19:25N 51°53' E 002°09'615.6
2018-Oct-14 19:03N 51°51' E 002°01'115.8
2018-Oct-14 19:01N 51°50' E 001°60'714.7
2018-Oct-14 18:31N 51°49' E 001°48'715.1
2018-Oct-14 18:03N 51°51' E 001°37'111.8
2018-Oct-14 18:00N 51°51' E 001°36'3 6.7
2018-Oct-14 17:30N 51°48' E 001°33'4 8.0
2018-Oct-14 17:03N 51°45' E 001°30'110.8
2018-Oct-14 17:00N 51°45' E 001°30'510.9
2018-Oct-14 16:30N 51°40' E 001°25'613.3
2018-Oct-14 16:04N 51°36' E 001°18'115.3
2018-Oct-14 16:01N 51°36' E 001°17'714.6
2018-Oct-14 15:31N 51°32' E 001°07'613.8
2018-Oct-14 15:03N 51°29' E 000°58'113.2
2018-Oct-14 15:00N 51°29' E 000°57'713.3
2018-Oct-14 14:30N 51°29' E 000°46'713.2
2018-Oct-14 14:00N 51°30' E 000°36'611.5
2018-Oct-14 13:30N 51°28' E 000°27'3 7.6
2018-Oct-14 13:03N 51°27' E 000°22'0 0.0
2018-Oct-14 13:00N 51°27' E 000°22'0 0.0
2018-Oct-14 12:30N 51°27' E 000°22'0 0.0
2018-Oct-14 12:03N 51°27' E 000°22'0 0.0
2018-Oct-14 12:00N 51°27' E 000°22'0 0.0
2018-Oct-14 11:30N 51°27' E 000°22'0 0.0
2018-Oct-14 11:03N 51°27' E 000°22'0 0.1
2018-Oct-14 11:00N 51°27' E 000°22'0 0.0
2018-Oct-14 10:30N 51°27' E 000°22'0 0.0
2018-Oct-14 10:03N 51°27' E 000°22'0 0.0
2018-Oct-14 10:00N 51°27' E 000°22'0 0.0
2018-Oct-14 09:30N 51°27' E 000°22'0 0.0
2018-Oct-14 09:03N 51°27' E 000°22'0 0.0
2018-Oct-14 09:00N 51°27' E 000°22'0 0.0
2018-Oct-14 08:30N 51°27' E 000°22'0 0.0
2018-Oct-14 08:00N 51°27' E 000°22'0 0.0
2018-Oct-14 07:30N 51°27' E 000°22'0 0.0
2018-Oct-14 07:03N 51°27' E 000°22'0 0.0
2018-Oct-14 07:00N 51°27' E 000°22'0 0.0
2018-Oct-14 06:30N 51°27' E 000°22'0 0.3
2018-Oct-14 06:04N 51°27' E 000°22'0 1.1
2018-Oct-14 06:00N 51°27' E 000°22'1 2.2
2018-Oct-14 05:31N 51°27' E 000°24'3 7.1
2018-Oct-14 05:04N 51°29' E 000°28'110.3
2018-Oct-14 05:00N 51°30' E 000°28'510.2
2018-Oct-14 04:31N 51°30' E 000°36'511.1
2018-Oct-14 04:03N 51°30' E 000°44'111.6
2018-Oct-14 04:00N 51°30' E 000°45'713.0
2018-Oct-14 03:30N 51°29' E 000°56'614.4
2018-Oct-14 03:03N 51°31' E 001°05'115.2
2018-Oct-14 03:00N 51°32' E 001°06'815.1
2018-Oct-14 02:30N 51°36' E 001°17'715.3
2018-Oct-14 02:03N 51°40' E 001°25'115.4
2018-Oct-14 02:00N 51°41' E 001°26'815.1
2018-Oct-14 01:30N 51°47' E 001°33'613.3
2018-Oct-14 01:04N 51°51' E 001°40'0 5.3
2018-Oct-14 01:00N 51°51' E 001°40'510.0
2018-Oct-14 00:30N 51°55' E 001°45'715.5
2018-Oct-14 00:03N 52°02' E 001°48'116.2
2018-Oct-14 00:00N 52°03' E 001°48'816.7
2018-Oct-13 23:30N 52°11' E 001°51'816.8
2018-Oct-13 23:03N 52°19' E 001°54'116.9
2018-Oct-13 23:00N 52°19' E 001°54'1716.8
2018-Oct-13 21:59N 52°36' E 002°02'816.2
2018-Oct-13 21:31N 52°43' E 002°04'816.2
2018-Oct-13 21:03N 52°48' E 001°54'116.9
2018-Oct-13 21:01N 52°48' E 001°53'816.2
2018-Oct-13 20:31N 52°53' E 001°42'716.4
2018-Oct-13 20:03N 52°57' E 001°32'115.9
2018-Oct-13 20:01N 52°58' E 001°32'815.6
2018-Oct-13 19:31N 53°04' E 001°25'715.3
2018-Oct-13 19:03N 53°10' E 001°19'115.2
2018-Oct-13 19:01N 53°11' E 001°18'815.1
2018-Oct-13 18:31N 53°18' E 001°12'715.1
2018-Oct-13 18:03N 53°24' E 001°06'115.5
2018-Oct-13 18:00N 53°24' E 001°06'4314.6
2018-Oct-13 15:04N 54°04' E 000°37'014.0
2018-Oct-13 15:03N 54°04' E 000°37'114.5
2018-Oct-13 15:01N 54°04' E 000°37'714.2
2018-Oct-13 14:30N 54°11' E 000°33'713.9
2018-Oct-13 13:58N 54°18' E 000°29'20514.2
2018-Oct-12 23:34N 57°31' W 001°34'112.0
2018-Oct-12 23:29N 57°32' W 001°35'613.0
2018-Oct-12 23:04N 57°37' W 001°39'113.5
2018-Oct-12 23:00N 57°37' W 001°39'  

Dump ship's entire track history